Share

Alexandria Borg El Arab, Egypt

Borg El Arab International (HEBA) Elev 174 ft | 30.92 °N, 29.70 °E | Change Station

Current weather conditions updated 17 minutes ago

Clear
Clear
73 °F
Feels Like 73 °F
N
7
Wind Variable Wind from North
Sunrise 5:27 AM
Sunset 6:33 PM
Moon Waning Gibbous

Today is forecast to be Warmer than yesterday.

Pressure 30.04 in
Visibility -9999.0 miles
Clouds
Dew Point 55 °F
Humidity 53%
Rainfall 0.00 in
Snow Depth Not available.
UV Not available.
Pollen Not available.
Air Quality Not available.
Flu Activity Not available.
METAR HEBA 211000Z 36006KT CAVOK 23/13 Q1017 NOSIG

More Conditions Fewer Conditions

Pressure 30.04 in
Visibility -9999.0 miles
Clouds
Dew Point 55 °F
Humidity 53%
Rainfall 0.00 in
Snow Depth Not available.
UV Not available.
Pollen Not available.
Air Quality Not available.
Flu Activity Not available.
METAR HEBA 211000Z 36006KT CAVOK 23/13 Q1017 NOSIG

More Conditions Fewer Conditions

10-Day Weather Forecast

Almanac

Astronomy

Apr. 21, 2014 Rise Set
Actual Time 5:27 AM EET 6:33 PM EET
Civil Twilight 5:02 AM EET 6:58 PM EET
Nautical Twilight 4:32 AM EET 7:28 PM EET
Astronomical Twilight 4:01 AM EET 7:58 PM EET
Moon No Moon Rise 10:37 AM EET
Length of Visible Light 13h 56m
Length of Day
13h 05m
Tomorrow will be 1m 44s longer.
Waning Gibbous, 60% of the Moon is Illuminated
Today
Waning Gibbous
Apr 22
Last Quarter
Apr 29
New
May 6
First Quarter
May 14
Full

Yesterday's Extremes

Country Highs Country Lows

Community

  • Snowy Robin
    Snowy Robin
  • Sun Pillar and Geese
    Sun Pillar and Geese
  • Showers on the Way
    Showers on the Way
  • Easter Morning Fog
    Easter Morning Fog
  • Easter Dance
    Easter Dance

WunderPhotos

Upload Photos

1,703,585 photos uploaded!

Nearby

Snow Depth

Not available.

Coastal Water Temperatures

Place Temperature
No Stations Reporting

Earthquake Activity

City Distance Mag. Time & Date
No recent earthquake activity has been reported nearby.
Minimum magnitude displayed is 2.5.

Nearby Weather Stations

There are no personal weather stations in this area.

What do you think?

We're not finished. Please let us know what you like, what you don't like, and what you are still missing.